Chester, New Hampshire
Current Conditions -  °F | °C
As of 9:53 PM on Saturday 22 Nov 2014 (Local Time) from KMHT Reporting Station
Broken Clouds Broken Clouds  
Wind Chill: 36°   Ceiling: 3500
Heat Index: 39°   Visibility: 10mi
Dew Point: 14°   Wind: 5mph
Humidity: 36%   Direction: 210°SSW
Pressure: 30.02"   Gusts: NA
Location:  42.96°N, 71.26°W
Report Text: KMHT 230253Z 21004KT 10SM BKN035 BKN075 04/M10 A3002 RMK AO2 SLP184 T00391100 56004
Loading
Personal Weather Stations






























Interactive Weather Map New forecast layout! Learn more

10-Day Weather Forecast

Advertisements
Track Severe Weather on mobile